createdAt,value
2018-01-23T00:00:41.971Z,88.29
2018-01-23T00:01:51.748Z,88.2
2018-01-23T00:03:01.537Z,88.24
2018-01-23T00:04:11.607Z,87.82
2018-01-23T00:05:21.684Z,88.2
2018-01-23T00:06:31.719Z,87.96
2018-01-23T00:07:41.510Z,88.1
2018-01-23T00:08:51.550Z,87.77
2018-01-23T00:10:01.734Z,87.96
2018-01-23T00:11:11.767Z,88.06
2018-01-23T00:12:21.801Z,87.96
2018-01-23T00:13:31.334Z,87.96
2018-01-23T00:14:42.094Z,88.29
2018-01-23T00:15:52.200Z,88.39
2018-01-23T00:17:02.247Z,88.06
2018-01-23T00:18:12.298Z,88.2
2018-01-23T00:19:22.092Z,88.29
2018-01-23T00:20:32.134Z,88.34
2018-01-23T00:21:41.930Z,88.01
2018-01-23T00:22:52.539Z,88.29
2018-01-23T00:24:02.339Z,88.29
2018-01-23T00:25:12.337Z,88.01
2018-01-23T00:26:22.370Z,88.29
2018-01-23T00:27:32.471Z,88.01
2018-01-23T00:28:42.213Z,88.39
2018-01-23T00:29:51.956Z,88.2
2018-01-23T00:31:01.976Z,88.34
2018-01-23T00:32:11.958Z,88.01
2018-01-23T00:33:21.741Z,88.01
2018-01-23T00:34:31.778Z,87.82
2018-01-23T00:35:41.809Z,88.2
2018-01-23T00:36:51.814Z,88.39
2018-01-23T00:38:01.587Z,88.29
2018-01-23T00:39:11.638Z,88.29
2018-01-23T00:40:21.692Z,88.01
2018-01-23T00:41:31.765Z,88.2
2018-01-23T00:42:41.802Z,88.68
2018-01-23T00:43:51.830Z,88.58
2018-01-23T00:45:01.932Z,88.29
2018-01-23T00:46:11.722Z,88.58
2018-01-23T00:47:20.991Z,88.77
2018-01-23T00:48:31.660Z,88.87
2018-01-23T00:49:41.640Z,88.77
2018-01-23T00:50:51.640Z,88.48
2018-01-23T00:52:01.463Z,88.68
2018-01-23T00:53:12.514Z,88.77
2018-01-23T00:54:22.290Z,89.15
2018-01-23T00:55:32.275Z,88.48
2018-01-23T00:56:42.308Z,88.58
2018-01-23T00:57:52.309Z,88.68
2018-01-23T00:59:02.283Z,88.96
2018-01-23T01:00:12.270Z,88.96
2018-01-23T01:01:22.261Z,88.77
2018-01-23T01:02:31.995Z,88.58
2018-01-23T01:03:41.476Z,88.48
2018-01-23T01:04:51.462Z,88.68
2018-01-23T01:06:01.431Z,88.29
2018-01-23T01:07:11.470Z,88.68
2018-01-23T01:08:21.194Z,88.48
2018-01-23T01:09:30.917Z,88.39
2018-01-23T01:10:40.668Z,88.29
2018-01-23T01:11:50.723Z,88.58
2018-01-23T01:13:00.508Z,88.87
2018-01-23T01:14:10.343Z,89.06
2018-01-23T01:15:20.405Z,88.82
2018-01-23T01:16:30.194Z,88.92
2018-01-23T01:17:40.237Z,88.82
2018-01-23T01:18:50.008Z,89.29
2018-01-23T01:19:59.795Z,88.82
2018-01-23T01:21:09.829Z,89.29
2018-01-23T01:22:20.123Z,89.01
2018-01-23T01:23:30.165Z,89.29
2018-01-23T01:24:40.198Z,89.2
2018-01-23T01:25:49.714Z,88.73
2018-01-23T01:26:59.741Z,88.92
2018-01-23T01:28:09.521Z,88.82
2018-01-23T01:29:19.064Z,89.01
2018-01-23T01:30:29.118Z,88.63
2018-01-23T01:31:39.178Z,88.44
2018-01-23T01:32:49.232Z,88.68
2018-01-23T01:33:59.287Z,88.77
2018-01-23T01:35:09.087Z,88.87
2018-01-23T01:36:19.136Z,88.58
2018-01-23T01:37:28.917Z,88.87
2018-01-23T01:38:38.704Z,88.68
2018-01-23T01:39:48.733Z,88.58
2018-01-23T01:40:58.787Z,88.68
2018-01-23T01:42:09.329Z,88.68
2018-01-23T01:43:19.425Z,88.68
2018-01-23T01:44:29.488Z,88.68
2018-01-23T01:45:39.276Z,88.48
2018-01-23T01:46:49.330Z,88.48
2018-01-23T01:47:59.410Z,88.68
2018-01-23T01:49:09.470Z,88.68
2018-01-23T01:50:19.517Z,88.48
2018-01-23T01:51:29.551Z,88.48
2018-01-23T01:52:39.339Z,88.29
2018-01-23T01:53:49.392Z,88.68
2018-01-23T01:54:59.858Z,88.48
2018-01-23T01:56:09.679Z,88.58
2018-01-23T01:57:19.471Z,88.68
2018-01-23T01:58:29.522Z,88.48
2018-01-23T01:59:39.795Z,88.48
2018-01-23T02:00:49.587Z,88.39
2018-01-23T02:01:59.632Z,88.29
2018-01-23T02:03:09.166Z,88.58
2018-01-23T02:04:19.220Z,88.39
2018-01-23T02:05:29.259Z,88.39
2018-01-23T02:06:39.039Z,88.48
2018-01-23T02:07:48.827Z,88.48
2018-01-23T02:08:58.913Z,88.68
2018-01-23T02:10:08.665Z,88.48
2018-01-23T02:11:18.441Z,88.48
2018-01-23T02:12:27.957Z,88.48
2018-01-23T02:13:38.017Z,88.68
2018-01-23T02:14:48.072Z,88.48
2018-01-23T02:15:58.105Z,88.58
2018-01-23T02:17:08.139Z,88.2
2018-01-23T02:18:18.223Z,88.96
2018-01-23T02:19:28.018Z,88.48
2018-01-23T02:20:38.053Z,88.29
2018-01-23T02:21:47.841Z,88.77
2018-01-23T02:22:57.894Z,88.87
2018-01-23T02:24:08.041Z,88.87
2018-01-23T02:25:18.143Z,88.87
2018-01-23T02:26:28.180Z,88.68
2018-01-23T02:27:38.213Z,88.68
2018-01-23T02:28:47.986Z,88.77
2018-01-23T02:29:58.047Z,88.87
2018-01-23T02:31:08.108Z,88.77
2018-01-23T02:32:18.154Z,88.58
2018-01-23T02:33:28.197Z,89.29
2018-01-23T02:34:37.731Z,88.87
2018-01-23T02:35:47.792Z,88.29
2018-01-23T02:36:57.839Z,88.68
2018-01-23T02:38:07.878Z,88.48
2018-01-23T02:39:17.409Z,88.58
2018-01-23T02:40:27.513Z,88.01
2018-01-23T02:41:37.561Z,88.39
2018-01-23T02:42:47.604Z,88.1
2018-01-23T02:43:57.713Z,88.2
2018-01-23T02:45:07.759Z,88.1
2018-01-23T02:46:17.861Z,87.82
2018-01-23T02:47:27.929Z,88.1
2018-01-23T02:48:37.711Z,88.1
2018-01-23T02:49:47.746Z,88.1
2018-01-23T02:50:57.792Z,88.1
2018-01-23T02:52:07.844Z,88.1
2018-01-23T02:53:17.894Z,87.82
2018-01-23T02:54:27.924Z,88.39
2018-01-23T02:55:37.709Z,88.39
2018-01-23T02:56:47.481Z,88.01
2018-01-23T02:57:57.262Z,88.29
2018-01-23T02:59:07.296Z,88.29
2018-01-23T03:00:17.341Z,88.29
2018-01-23T03:01:26.867Z,88.39
2018-01-23T03:02:36.905Z,88.58
2018-01-23T03:34:38.608Z,83.95
2018-01-23T03:35:48.398Z,84.52
2018-01-23T03:36:58.421Z,85.94
2018-01-23T03:38:08.449Z,87.08
2018-01-23T03:39:18.488Z,87.55
2018-01-23T03:40:28.523Z,88.21
2018-01-23T03:41:38.549Z,88.68
2018-01-23T03:42:48.581Z,89.25
2018-01-23T03:43:58.613Z,89.73
2018-01-23T03:45:08.649Z,89.49
2018-01-23T03:46:18.706Z,89.58
2018-01-23T03:47:28.477Z,89.3
2018-01-23T03:48:38.513Z,89.3
2018-01-23T03:49:48.571Z,89.58
2018-01-23T03:50:59.504Z,89.44
2018-01-23T03:52:09.304Z,89.44
2018-01-23T03:53:19.097Z,89.34
2018-01-23T03:54:28.635Z,89.34
2018-01-23T03:55:38.681Z,88.96
2018-01-23T03:56:48.735Z,89.06
2018-01-23T03:57:58.904Z,88.96
2018-01-23T03:59:08.435Z,89.29
2018-01-23T04:00:18.486Z,89.29
2018-01-23T04:01:28.534Z,88.73
2018-01-23T04:02:38.313Z,88.92
2018-01-23T04:03:48.138Z,89.01
2018-01-23T04:04:58.194Z,88.73
2018-01-23T04:06:08.295Z,88.92
2018-01-23T04:07:18.072Z,88.54
2018-01-23T04:08:27.850Z,88.92
2018-01-23T04:09:37.896Z,88.92
2018-01-23T04:10:47.945Z,88.92
2018-01-23T04:11:57.990Z,88.63
2018-01-23T04:13:08.037Z,88.63
2018-01-23T04:14:17.833Z,88.2
2018-01-23T04:15:27.608Z,88.48
2018-01-23T04:16:37.649Z,88.68
2018-01-23T04:17:47.698Z,88.87
2018-01-23T04:18:57.755Z,88.68
2018-01-23T04:20:07.538Z,88.77
2018-01-23T04:21:17.628Z,88.39
2018-01-23T04:22:27.685Z,88.48
2018-01-23T04:23:37.213Z,88.77
2018-01-23T04:24:47.005Z,88.77
2018-01-23T04:25:57.039Z,88.58
2018-01-23T04:27:07.102Z,88.77
2018-01-23T04:28:16.883Z,88.87
2018-01-23T04:29:26.937Z,88.68
2018-01-23T04:30:36.982Z,88.68
2018-01-23T04:31:47.020Z,88.68
2018-01-23T04:32:57.114Z,88.48
2018-01-23T04:34:07.150Z,88.77
2018-01-23T04:35:17.197Z,88.58
2018-01-23T04:36:27.251Z,88.39
2018-01-23T04:37:37.324Z,88.77
2018-01-23T04:38:47.692Z,88.96
2018-01-23T04:39:57.495Z,88.58
2018-01-23T04:41:07.269Z,88.68
2018-01-23T04:42:16.806Z,88.68
2018-01-23T04:43:26.596Z,88.68
2018-01-23T04:44:36.633Z,88.68
2018-01-23T04:45:46.162Z,88.58
2018-01-23T04:46:56.203Z,88.68
2018-01-23T04:48:06.240Z,88.58
2018-01-23T04:49:16.296Z,88.58
2018-01-23T04:50:26.339Z,88.68
2018-01-23T04:51:36.400Z,88.48
2018-01-23T04:52:46.446Z,88.58
2018-01-23T04:53:56.228Z,88.29
2018-01-23T04:55:06.281Z,88.77
2018-01-23T04:56:16.331Z,88.68
2018-01-23T04:57:26.371Z,88.68
2018-01-23T04:58:36.423Z,88.2
2018-01-23T04:59:46.463Z,88.72
2018-01-23T05:00:56.498Z,88.53
2018-01-23T05:02:06.275Z,88.62
2018-01-23T05:03:16.328Z,88.62
2018-01-23T05:04:26.124Z,88.34
2018-01-23T05:05:35.930Z,88.34
2018-01-23T05:06:45.977Z,88.53
2018-01-23T05:07:55.772Z,88.72
2018-01-23T05:09:05.545Z,88.72
2018-01-23T05:10:15.334Z,88.72
2018-01-23T05:11:25.389Z,88.72
2018-01-23T05:12:35.449Z,88.72
2018-01-23T05:13:44.966Z,88.34
2018-01-23T05:14:54.746Z,88.53
2018-01-23T05:16:04.803Z,88.72
2018-01-23T05:17:14.582Z,88.53
2018-01-23T05:18:24.626Z,88.34
2018-01-23T05:19:34.455Z,88.72
2018-01-23T05:20:44.494Z,88.72
2018-01-23T05:21:54.552Z,88.53
2018-01-23T05:23:04.597Z,88.72
2018-01-23T05:24:14.643Z,88.53
2018-01-23T05:25:24.437Z,88.53
2018-01-23T05:26:34.493Z,88.43
2018-01-23T05:27:44.024Z,88.72
2018-01-23T05:28:54.076Z,88.62
2018-01-23T05:30:04.137Z,88.34
2018-01-23T05:31:14.833Z,88.72
2018-01-23T05:32:24.891Z,88.81
2018-01-23T05:33:34.684Z,88.72
2018-01-23T05:34:44.729Z,88.81
2018-01-23T05:35:54.518Z,88.62
2018-01-23T05:37:04.308Z,88.62
2018-01-23T05:38:13.880Z,88.24
2018-01-23T05:39:23.943Z,88.72
2018-01-23T05:40:34.033Z,88.62
2018-01-23T05:41:44.085Z,88.53
2018-01-23T05:42:54.180Z,88.62
2018-01-23T05:44:04.292Z,88.62
2018-01-23T05:45:14.343Z,88.72
2018-01-23T05:46:24.398Z,88.53
2018-01-23T05:47:34.189Z,88.81
2018-01-23T05:48:44.231Z,88.72
2018-01-23T05:49:53.999Z,88.91
2018-01-23T05:51:04.071Z,89.1
2018-01-23T05:52:14.137Z,89
2018-01-23T05:53:23.937Z,88.96
2018-01-23T05:54:34.033Z,89.06
2018-01-23T05:55:43.812Z,88.96
2018-01-23T05:56:53.977Z,89.15
2018-01-23T05:58:04.054Z,88.87
2018-01-23T05:59:14.092Z,88.87
2018-01-23T06:00:23.923Z,88.96
2018-01-23T06:01:33.445Z,89.15
2018-01-23T06:02:42.962Z,88.77
2018-01-23T06:03:52.989Z,88.48
2018-01-23T06:05:03.782Z,88.62
2018-01-23T06:06:13.877Z,88.53
2018-01-23T06:07:23.910Z,88.43
2018-01-23T06:08:34.009Z,88.53
2018-01-23T06:09:43.807Z,88.72
2018-01-23T06:10:53.581Z,88.72
2018-01-23T06:12:03.690Z,88.81
2018-01-23T06:13:13.744Z,88.43
2018-01-23T06:14:23.538Z,88.53
2018-01-23T06:15:33.332Z,88.62
2018-01-23T06:16:43.378Z,88.62
2018-01-23T06:17:53.170Z,88.62
2018-01-23T06:19:02.943Z,88.72
2018-01-23T06:20:12.983Z,88.72
2018-01-23T06:21:22.509Z,88.53
2018-01-23T06:22:32.551Z,88.53
2018-01-23T06:23:42.618Z,88.43
2018-01-23T06:24:52.665Z,88.24
2018-01-23T06:26:02.196Z,88.72
2018-01-23T06:27:12.231Z,88.62
2018-01-23T06:28:22.055Z,88.43
2018-01-23T06:29:31.847Z,89.39
2018-01-23T06:30:41.622Z,88.91
2018-01-23T06:31:51.399Z,88.72
2018-01-23T06:33:01.436Z,88.81
2018-01-23T06:34:10.959Z,88.62
2018-01-23T06:35:21.021Z,88.43
2018-01-23T06:36:31.094Z,88.62
2018-01-23T06:37:40.892Z,88.34
2018-01-23T06:38:50.678Z,88.34
2018-01-23T06:40:00.718Z,88.72
2018-01-23T06:41:10.520Z,88.34
2018-01-23T06:42:20.564Z,88.34
2018-01-23T06:43:30.600Z,88.34
2018-01-23T06:44:40.381Z,88.24
2018-01-23T06:45:50.165Z,88.24
2018-01-23T06:47:00.274Z,88.72
2018-01-23T06:48:10.049Z,88.81
2018-01-23T06:49:20.117Z,88.43
2018-01-23T06:50:30.157Z,88.72
2018-01-23T06:51:40.200Z,88.72
2018-01-23T06:52:50.253Z,88.72
2018-01-23T06:54:00.298Z,88.81
2018-01-23T06:55:10.347Z,88.91
2018-01-23T06:56:20.394Z,88.81
2018-01-23T06:57:30.442Z,88.72
2018-01-23T06:58:40.245Z,88.43
2018-01-23T06:59:50.048Z,88.72
2018-01-23T07:01:00.081Z,88.91
2018-01-23T07:02:09.865Z,88.62
2018-01-23T07:03:19.925Z,88.53
2018-01-23T07:04:29.754Z,88.53
2018-01-23T07:05:39.802Z,88.72
2018-01-23T07:06:49.374Z,88.72
2018-01-23T07:07:59.409Z,89.2
2018-01-23T07:09:09.479Z,88.53
2018-01-23T07:10:19.329Z,88.43
2018-01-23T07:11:29.367Z,88.62
2018-01-23T07:12:39.150Z,88.81
2018-01-23T07:13:49.199Z,88.34
2018-01-23T07:14:59.360Z,88.91
2018-01-23T07:16:09.416Z,88.53
2018-01-23T07:17:19.461Z,88.34
2018-01-23T07:18:29.504Z,88.62
2018-01-23T07:19:39.290Z,88.72
2018-01-23T07:20:49.084Z,88.72
2018-01-23T07:21:58.873Z,88.24
2018-01-23T07:23:08.673Z,88.34
2018-01-23T07:24:18.761Z,88.43
2018-01-23T07:25:28.860Z,88.53
2018-01-23T07:26:38.924Z,88.72
2018-01-23T07:27:49.022Z,88.72
2018-01-23T07:28:59.067Z,88.34
2018-01-23T07:30:09.135Z,88.24
2018-01-23T07:31:18.922Z,88.24
2018-01-23T07:32:28.716Z,88.43
2018-01-23T07:33:38.771Z,88.34
2018-01-23T07:34:48.822Z,88.06
2018-01-23T07:35:58.872Z,88.06
2018-01-23T07:37:08.902Z,88.15
2018-01-23T07:38:18.683Z,88.06
2018-01-23T07:39:28.721Z,88.15
2018-01-23T07:40:38.767Z,88.53
2018-01-23T07:41:48.825Z,88.53
2018-01-23T07:42:58.859Z,88.53
2018-01-23T07:44:08.634Z,88.15
2018-01-23T07:45:18.437Z,88.06
2018-01-23T07:46:28.275Z,88.34
2018-01-23T07:47:38.079Z,88.06
2018-01-23T07:48:47.638Z,88.15
2018-01-23T07:49:57.694Z,88.15
2018-01-23T07:51:07.795Z,88.34
2018-01-23T07:52:17.828Z,88.15
2018-01-23T07:53:27.919Z,88.29
2018-01-23T07:54:37.765Z,88.2
2018-01-23T07:55:47.557Z,88.2
2018-01-23T07:56:58.473Z,88.2
2018-01-23T07:58:08.575Z,87.91
2018-01-23T07:59:18.652Z,88.39
2018-01-23T08:00:28.724Z,88.39
2018-01-23T08:01:38.806Z,88.39
2018-01-23T08:02:48.621Z,88.1
2018-01-23T08:03:58.430Z,88.15
2018-01-23T08:05:08.562Z,88.48
2018-01-23T08:06:18.627Z,88.57
2018-01-23T08:07:28.841Z,88.43
2018-01-23T08:08:39.037Z,88.53
2018-01-23T08:09:49.079Z,88.24
2018-01-23T08:10:59.159Z,88.43
2018-01-23T08:12:09.299Z,88.53
2018-01-23T08:13:19.444Z,88.72
2018-01-23T08:14:29.546Z,88.72
2018-01-23T08:15:39.620Z,88.43
2018-01-23T08:16:49.688Z,88.81
2018-01-23T08:17:59.764Z,88.62
2018-01-23T08:19:09.825Z,88.81
2018-01-23T08:20:19.631Z,88.81
2018-01-23T08:21:29.445Z,88.53
2018-01-23T08:22:39.520Z,88.72
2018-01-23T08:23:49.576Z,88.72
2018-01-23T08:24:59.375Z,88.72
2018-01-23T08:26:09.413Z,88.72
2018-01-23T08:27:19.474Z,88.24
2018-01-23T08:28:29.533Z,88.15
2018-01-23T08:29:40.514Z,87.96
2018-01-23T08:30:50.586Z,88.15
2018-01-23T08:32:00.734Z,88.15
2018-01-23T08:33:10.799Z,87.96
2018-01-23T08:34:21.040Z,88.15
2018-01-23T08:35:31.069Z,88.34
2018-01-23T08:36:41.122Z,88.34
2018-01-23T08:37:50.932Z,88.06
2018-01-23T08:39:00.977Z,88.06
2018-01-23T08:40:10.747Z,88.06
2018-01-23T08:41:20.543Z,88.06
2018-01-23T08:42:30.616Z,88.06
2018-01-23T08:43:40.679Z,88.15
2018-01-23T08:44:50.766Z,87.96
2018-01-23T08:46:00.835Z,88.15
2018-01-23T08:47:10.899Z,88.15
2018-01-23T08:48:20.948Z,88.2
2018-01-23T08:49:31.054Z,88.01
2018-01-23T08:50:41.393Z,88.29
2018-01-23T08:51:51.478Z,88.29
2018-01-23T08:53:01.263Z,88.1
2018-01-23T08:54:10.854Z,88.24
2018-01-23T08:55:20.940Z,88.57
2018-01-23T08:56:30.979Z,88.01
2018-01-23T08:57:41.039Z,88.29
2018-01-23T08:58:51.212Z,87.91
2018-01-23T09:00:01.014Z,87.43
2018-01-23T09:01:11.082Z,87.24
2018-01-23T09:02:20.892Z,87.62
2018-01-23T09:03:31.007Z,87.43
2018-01-23T09:04:40.544Z,87.72
2018-01-23T09:05:50.087Z,87.53
2018-01-23T09:07:00.162Z,87.48
2018-01-23T09:08:10.211Z,87.91
2018-01-23T09:09:20.101Z,87.86
2018-01-23T09:10:30.211Z,87.72
2018-01-23T09:11:40.265Z,87.82
2018-01-23T09:12:50.309Z,87.76
2018-01-23T09:14:00.390Z,87.76
2018-01-23T09:15:10.269Z,87.76
2018-01-23T09:16:20.320Z,88.05
2018-01-23T09:17:30.375Z,87.86
2018-01-23T09:18:41.369Z,88.43
2018-01-23T09:19:51.436Z,88.71
2018-01-23T09:21:01.512Z,88.39
2018-01-23T09:22:11.592Z,88.76
2018-01-23T09:23:21.388Z,88.39
2018-01-23T09:24:31.428Z,88.76
2018-01-23T09:25:41.592Z,88.86
2018-01-23T09:26:51.633Z,88.86
2018-01-23T09:28:01.699Z,88.39
2018-01-23T09:29:11.782Z,88.76
2018-01-23T09:30:21.849Z,88.53
2018-01-23T09:31:31.912Z,88.62
2018-01-23T09:32:41.715Z,87.95
2018-01-23T09:33:51.762Z,88.15
2018-01-23T09:35:01.831Z,87.86
2018-01-23T09:36:11.397Z,87.95
2018-01-23T09:37:21.185Z,87.95
2018-01-23T09:38:30.985Z,87.76
2018-01-23T09:39:41.053Z,87.48
2018-01-23T09:40:51.124Z,87.34
2018-01-23T09:42:00.917Z,87.48
2018-01-23T09:43:10.970Z,87.86
2018-01-23T09:44:21.089Z,88.15
2018-01-23T09:45:31.209Z,87.9
2018-01-23T09:46:41.269Z,87.81
2018-01-23T09:47:51.328Z,88.28
2018-01-23T09:49:01.482Z,88.15
2018-01-23T09:50:11.556Z,87.95
2018-01-23T09:51:21.607Z,88.71
2018-01-23T09:52:31.412Z,88.34
2018-01-23T09:53:41.469Z,88.81
2018-01-23T09:54:51.305Z,88.34
2018-01-23T09:56:00.840Z,88.24
2018-01-23T09:57:10.634Z,88.15
2018-01-23T09:58:20.680Z,88.24
2018-01-23T09:59:30.786Z,88.24
2018-01-23T10:00:40.849Z,88.71
2018-01-23T10:01:50.646Z,88.34
2018-01-23T10:03:00.732Z,88.53
2018-01-23T10:04:10.810Z,88.38
2018-01-23T10:05:20.868Z,88.24
2018-01-23T10:06:30.930Z,88.19
2018-01-23T10:07:40.727Z,88.38
2018-01-23T10:08:50.839Z,88.09
2018-01-23T10:10:00.629Z,88
2018-01-23T10:11:10.445Z,88.09
2018-01-23T10:12:20.505Z,88.28
2018-01-23T10:13:30.570Z,88.57
2018-01-23T10:14:40.616Z,88.28
2018-01-23T10:15:50.459Z,88.28
2018-01-23T10:17:00.517Z,88.28
2018-01-23T10:18:10.307Z,88
2018-01-23T10:19:20.373Z,88
2018-01-23T10:20:30.161Z,88.09
2018-01-23T10:21:40.238Z,88.28
2018-01-23T10:22:50.041Z,88.19
2018-01-23T10:24:00.089Z,88.47
2018-01-23T10:25:09.905Z,88.67
2018-01-23T10:26:19.696Z,88.85
2018-01-23T10:27:29.487Z,88.67
2018-01-23T10:28:39.268Z,88.8
2018-01-23T10:29:49.334Z,89.14
2018-01-23T10:30:59.426Z,88.85
2018-01-23T10:32:08.968Z,88.76
2018-01-23T10:33:19.006Z,88.61
2018-01-23T10:34:28.545Z,88.67
2018-01-23T10:35:38.606Z,88.57
2018-01-23T10:36:48.693Z,88.8
2018-01-23T10:37:58.499Z,88.67
2018-01-23T10:39:08.565Z,88.76
2018-01-23T10:40:18.635Z,88.67
2018-01-23T10:41:28.693Z,88.8
2018-01-23T10:42:38.743Z,89
2018-01-23T10:43:48.812Z,88.76
2018-01-23T10:44:58.361Z,89.09
2018-01-23T10:46:08.422Z,89.47
2018-01-23T10:47:18.222Z,88.42
2018-01-23T10:48:28.332Z,88.71
2018-01-23T10:49:38.398Z,88.33
2018-01-23T10:50:48.475Z,88.23
2018-01-23T10:51:58.871Z,88.04
2018-01-23T10:53:08.920Z,88.52
2018-01-23T10:54:18.982Z,88.09
2018-01-23T10:55:28.771Z,87.9
2018-01-23T10:56:38.626Z,87.61
2018-01-23T10:57:48.689Z,87.8
2018-01-23T10:58:58.742Z,87.99
2018-01-23T11:00:08.831Z,87.9
2018-01-23T11:01:18.613Z,87.75
2018-01-23T11:02:28.676Z,87.9
2018-01-23T11:03:38.481Z,87.65
2018-01-23T11:04:48.262Z,87.65
2018-01-23T11:05:58.318Z,87.75
2018-01-23T11:07:08.364Z,87.75
2018-01-23T11:08:18.411Z,87.75
2018-01-23T11:09:28.480Z,87.75
2018-01-23T11:10:38.514Z,87.65
2018-01-23T11:11:48.697Z,87.94
2018-01-23T11:12:58.756Z,88.04
2018-01-23T11:14:08.548Z,87.85
2018-01-23T11:15:18.344Z,87.75
2018-01-23T11:16:28.153Z,88.04
2018-01-23T11:17:38.245Z,87.94
2018-01-23T11:18:48.287Z,87.85
2018-01-23T11:19:58.079Z,87.89
2018-01-23T11:21:08.141Z,87.85
2018-01-23T11:22:17.943Z,88.08
2018-01-23T11:23:28.001Z,88.18
2018-01-23T11:24:38.054Z,87.79
2018-01-23T11:25:48.133Z,87.94
2018-01-23T11:26:57.917Z,88.08
2018-01-23T11:28:07.962Z,88.65
2018-01-23T11:29:17.799Z,88.27
2018-01-23T11:30:27.864Z,88.37
2018-01-23T11:31:37.912Z,88.46
2018-01-23T11:32:47.698Z,88.37
2018-01-23T11:33:57.747Z,87.98
2018-01-23T11:35:07.853Z,88.27
2018-01-23T11:36:17.899Z,88.18
2018-01-23T11:37:27.952Z,87.79
2018-01-23T11:38:38.004Z,88.18
2018-01-23T11:39:48.074Z,87.7
2018-01-23T11:40:58.122Z,87.79
2018-01-23T11:42:08.158Z,87.79
2018-01-23T11:43:18.199Z,87.89
2018-01-23T11:44:28.246Z,87.89
2018-01-23T11:45:38.039Z,87.7
2018-01-23T11:46:47.826Z,87.89
2018-01-23T11:47:57.623Z,87.98
2018-01-23T11:49:07.696Z,87.89
2018-01-23T11:50:17.731Z,87.7
2018-01-23T11:51:27.505Z,87.51
2018-01-23T11:52:37.349Z,87.7
2018-01-23T11:53:48.187Z,87.79
2018-01-23T11:54:58.267Z,87.89
2018-01-23T11:56:08.063Z,87.79
2018-01-23T11:57:18.105Z,87.89
2018-01-23T11:58:27.947Z,87.89
2018-01-23T11:59:38.006Z,87.89
2018-01-23T12:00:48.042Z,87.7
2018-01-23T12:01:58.087Z,87.7
2018-01-23T12:03:08.134Z,87.7
2018-01-23T12:04:17.651Z,87.89
2018-01-23T12:05:27.432Z,87.7
2018-01-23T12:06:37.239Z,87.98
2018-01-23T12:07:47.021Z,87.7
2018-01-23T12:08:56.864Z,87.7
2018-01-23T12:10:06.703Z,87.74
2018-01-23T12:11:16.495Z,87.7
2018-01-23T12:12:26.558Z,87.84
2018-01-23T12:13:36.622Z,87.84
2018-01-23T12:14:46.146Z,87.84
2018-01-23T12:15:55.776Z,87.93
2018-01-23T12:17:05.856Z,88.03
2018-01-23T12:18:15.923Z,87.93
2018-01-23T12:19:26.680Z,87.93
2018-01-23T12:20:37.541Z,88.03
2018-01-23T12:21:47.602Z,88.31
2018-01-23T12:22:57.669Z,88.22
2018-01-23T12:24:07.450Z,88.6
2018-01-23T12:25:17.247Z,88.51
2018-01-23T12:26:27.291Z,88.31
2018-01-23T12:27:37.343Z,88.93
2018-01-23T12:28:47.557Z,88.84
2018-01-23T12:29:58.469Z,89.07
2018-01-23T12:31:08.261Z,88.98
2018-01-23T12:32:18.061Z,88.7
2018-01-23T12:33:27.871Z,89.07
2018-01-23T12:34:37.944Z,89.36
2018-01-23T12:35:47.489Z,89.26
2018-01-23T12:36:57.293Z,89.46
2018-01-23T12:38:06.868Z,88.7
2018-01-23T12:39:16.914Z,88.89
2018-01-23T12:40:26.691Z,89.26
2018-01-23T12:41:36.745Z,89.22
2018-01-23T12:42:46.536Z,88.84
2018-01-23T12:43:56.576Z,89.03
2018-01-23T12:45:06.353Z,89.12
2018-01-23T12:46:16.154Z,89.12
2018-01-23T12:47:26.321Z,89.12
2018-01-23T12:48:36.391Z,89.03
2018-01-23T12:49:46.461Z,88.74
2018-01-23T12:50:56.514Z,88.84
2018-01-23T12:52:06.558Z,88.74
2018-01-23T12:53:16.085Z,89.12
2018-01-23T12:54:26.166Z,89.03
2018-01-23T12:55:36.247Z,88.74
2018-01-23T12:56:46.038Z,89.12
2018-01-23T12:57:56.200Z,89.31
2018-01-23T12:59:05.986Z,89.22
2018-01-23T13:00:16.094Z,89.79
2018-01-23T13:01:26.193Z,89.6
2018-01-23T13:02:36.263Z,89.89
2018-01-23T13:03:46.380Z,89.55
2018-01-23T13:04:56.429Z,89.94
2018-01-23T13:06:06.230Z,89.84
2018-01-23T13:07:16.286Z,89.94
2018-01-23T13:08:26.342Z,89.84
2018-01-23T13:09:36.390Z,89.55
2018-01-23T13:10:46.443Z,89.55
2018-01-23T13:11:56.503Z,89.55
2018-01-23T13:13:07.155Z,89.65
2018-01-23T13:14:17.211Z,89.36
2018-01-23T13:15:27.275Z,89.65
2018-01-23T13:16:37.080Z,89.55
2018-01-23T13:17:47.135Z,89.94
2018-01-23T13:18:57.195Z,89.94
2018-01-23T13:20:07.256Z,89.84
2018-01-23T13:21:17.310Z,89.46
2018-01-23T13:22:27.113Z,89.65
2018-01-23T13:23:37.165Z,89.84
2018-01-23T13:24:46.944Z,89.75
2018-01-23T13:25:56.972Z,89.84
2018-01-23T13:27:06.826Z,90.22
2018-01-23T13:28:16.872Z,89.84
2018-01-23T13:29:26.663Z,89.65
2018-01-23T13:30:36.724Z,89.94
2018-01-23T13:31:46.762Z,89.65
2018-01-23T13:32:56.285Z,89.65
2018-01-23T13:34:06.320Z,89.65
2018-01-23T13:35:16.179Z,89.07
2018-01-23T13:36:26.271Z,89.17
2018-01-23T13:37:36.327Z,89.36
2018-01-23T13:38:45.857Z,89.36
2018-01-23T13:39:55.925Z,89.17
2018-01-23T13:41:05.972Z,89.55
2018-01-23T13:42:16.117Z,89.26
2018-01-23T13:43:26.243Z,89.26
2018-01-23T13:44:36.285Z,89.75
2018-01-23T13:45:46.911Z,89.55
2018-01-23T13:46:56.815Z,89.55
2018-01-23T13:48:06.613Z,89.65
2018-01-23T13:49:17.387Z,89.84
2018-01-23T13:50:28.109Z,89.75
2018-01-23T13:51:38.157Z,90.22
2018-01-23T13:52:47.999Z,90.22
2018-01-23T13:53:57.539Z,90.22
2018-01-23T13:55:07.349Z,90.31
2018-01-23T13:56:17.411Z,89.94
2018-01-23T13:57:27.452Z,90.12
2018-01-23T13:58:37.574Z,90.22
2018-01-23T13:59:47.619Z,90.31
2018-01-23T14:00:57.164Z,90.12
2018-01-23T14:02:07.215Z,90.31
2018-01-23T14:03:17.015Z,90.31
2018-01-23T14:04:27.063Z,90.22
2018-01-23T14:05:37.117Z,90.31
2018-01-23T14:06:47.278Z,90.31
2018-01-23T14:07:57.337Z,89.94
2018-01-23T14:09:07.130Z,90.12
2018-01-23T14:10:17.237Z,90.22
2018-01-23T14:11:27.033Z,90.03
2018-01-23T14:12:37.086Z,90.22
2018-01-23T14:13:46.881Z,90.03
2018-01-23T14:14:56.929Z,90.03
2018-01-23T14:16:06.968Z,90.12
2018-01-23T14:17:17.026Z,90.12
2018-01-23T14:18:27.159Z,90.22
2018-01-23T14:19:36.950Z,89.94
2018-01-23T14:20:47.012Z,90.12
2018-01-23T14:21:56.865Z,89.94
2018-01-23T14:23:06.908Z,90.31
2018-01-23T14:24:16.969Z,89.94
2018-01-23T14:25:27.024Z,90.22
2018-01-23T14:26:37.075Z,90.31
2018-01-23T14:27:47.142Z,90.22
2018-01-23T14:28:56.664Z,90.41
2018-01-23T14:30:06.740Z,90.41
2018-01-23T14:31:16.578Z,90.31
2018-01-23T14:32:26.751Z,90.31
2018-01-23T14:33:36.807Z,90.31
2018-01-23T14:34:46.600Z,90.03
2018-01-23T14:35:56.668Z,90.03
2018-01-23T14:37:06.736Z,90.03
2018-01-23T14:38:16.515Z,89.94
2018-01-23T14:39:26.306Z,89.94
2018-01-23T14:40:36.350Z,90.27
2018-01-23T14:41:45.889Z,89.89
2018-01-23T14:42:55.931Z,89.89
2018-01-23T14:44:05.998Z,90.22
2018-01-23T14:45:16.035Z,90.03
2018-01-23T14:46:26.971Z,89.84
2018-01-23T14:47:38.016Z,89.94
2018-01-23T14:48:48.075Z,89.94
2018-01-23T14:49:57.864Z,89.94
2018-01-23T14:51:07.704Z,89.94
2018-01-23T14:52:17.768Z,89.98
2018-01-23T14:53:27.817Z,90.12
2018-01-23T14:54:37.864Z,90.22
2018-01-23T14:55:47.914Z,90.03
2018-01-23T14:56:57.724Z,89.94
2018-01-23T14:58:07.783Z,90.12
2018-01-23T14:59:17.649Z,89.94
2018-01-23T15:00:27.756Z,90.22
2018-01-23T15:01:37.805Z,90.12
2018-01-23T15:02:47.862Z,90.31
2018-01-23T15:03:57.967Z,90.08
2018-01-23T15:05:08.036Z,89.98
2018-01-23T15:06:18.112Z,90.36
2018-01-23T15:07:28.183Z,90.17
2018-01-23T15:08:38.276Z,90.36
2018-01-23T15:09:47.847Z,90.27
2018-01-23T15:10:57.979Z,90.17
2018-01-23T15:12:07.775Z,90.27
2018-01-23T15:13:17.904Z,90.46
2018-01-23T15:14:27.707Z,90.27
2018-01-23T15:15:37.595Z,90.17
2018-01-23T15:16:47.663Z,90.27
2018-01-23T15:17:57.751Z,90.27
2018-01-23T15:19:07.833Z,90.27
2018-01-23T15:20:17.664Z,90.36
2018-01-23T15:21:27.744Z,90.17
2018-01-23T15:22:37.820Z,89.7
2018-01-23T15:23:47.890Z,90.17
2018-01-23T15:24:57.934Z,89.89
2018-01-23T15:26:07.770Z,90.17
2018-01-23T15:27:17.929Z,90.27
2018-01-23T15:28:27.736Z,90.27
2018-01-23T15:29:40.003Z,90.17
2018-01-23T15:30:51.121Z,90.27
2018-01-23T15:32:01.209Z,90.36
2018-01-23T15:33:11.326Z,90.46
2018-01-23T15:34:21.395Z,90.27